Time;durP1;ratioP1;P1;durP2;ratioP2;P2;SDS_P1;SDS_P2;PMS_P1;PMS_P2;Temp;Humidity;BMP_temperature;BMP_pressure;BME280_temperature;BME280_humidity;BME280_pressure;Samples;Min_cycle;Max_cycle;Signal;HPM_P1;HPM_P2
2020/12/23 00:01:15;;;;;;;33.08;19.45;;;9.80;99.90;;;;;;5062292;28;20025;-66
2020/12/23 00:03:41;;;;;;;39.05;18.25;;;9.80;99.90;;;;;;5065565;28;20032;-67
2020/12/23 00:06:07;;;;;;;40.78;20.02;;;9.80;99.90;;;;;;5074918;28;20381;-66
2020/12/23 00:08:33;;;;;;;36.00;17.92;;;9.80;99.90;;;;;;5070779;28;20039;-66
2020/12/23 00:10:59;;;;;;;36.30;17.55;;;9.80;99.90;;;;;;5074866;28;20119;-67
2020/12/23 00:13:24;;;;;;;39.50;19.27;;;9.80;99.90;;;;;;5063814;28;20354;-67
2020/12/23 00:15:50;;;;;;;32.83;16.95;;;9.80;99.90;;;;;;5071392;28;20111;-67
2020/12/23 00:18:15;;;;;;;32.20;18.30;;;9.80;99.90;;;;;;5066157;28;20045;-68
2020/12/23 00:20:41;;;;;;;36.58;18.42;;;9.80;99.90;;;;;;5062261;28;20073;-67
2020/12/23 00:23:06;;;;;;;38.08;18.77;;;9.80;99.90;;;;;;5067079;28;20021;-67
2020/12/23 00:25:32;;;;;;;36.83;20.00;;;9.80;99.90;;;;;;5073597;28;20100;-67
2020/12/23 00:27:57;;;;;;;37.05;20.33;;;9.90;99.90;;;;;;5063071;28;20020;-67
2020/12/23 00:30:23;;;;;;;36.85;20.08;;;9.80;99.90;;;;;;5079131;28;20055;-67
2020/12/23 00:32:49;;;;;;;40.33;18.92;;;9.90;99.90;;;;;;5064496;28;20047;-67
2020/12/23 00:35:14;;;;;;;46.47;22.92;;;9.90;99.90;;;;;;5058382;28;20758;-66
2020/12/23 00:37:40;;;;;;;51.47;23.17;;;9.90;99.90;;;;;;5069315;28;20131;-68
2020/12/23 00:40:05;;;;;;;40.65;20.83;;;9.90;99.90;;;;;;5068537;28;20218;-67
2020/12/23 00:42:31;;;;;;;44.25;21.75;;;9.90;99.90;;;;;;5067872;28;20076;-67
2020/12/23 00:45:00;;;;;;;46.35;22.48;;;9.90;99.90;;;;;;5067758;28;20369;-67
2020/12/23 00:47:26;;;;;;;39.00;21.25;;;9.90;99.90;;;;;;5072711;28;20047;-67
2020/12/23 00:49:51;;;;;;;44.50;22.95;;;9.90;99.90;;;;;;5063935;28;20017;-67
2020/12/23 00:52:17;;;;;;;42.90;21.88;;;9.90;99.90;;;;;;5060805;28;20032;-68
2020/12/23 00:54:42;;;;;;;44.40;22.80;;;10.00;99.90;;;;;;5060511;28;20120;-67
2020/12/23 00:57:09;;;;;;;46.35;23.15;;;9.90;99.90;;;;;;5070796;28;20105;-68
2020/12/23 00:59:35;;;;;;;51.67;26.20;;;10.00;99.90;;;;;;5064136;28;20028;-68
2020/12/23 01:02:00;;;;;;;47.47;24.40;;;10.00;99.90;;;;;;5059335;28;20032;-67
2020/12/23 01:04:27;;;;;;;48.70;24.45;;;10.00;99.90;;;;;;5061160;28;20492;-68
2020/12/23 01:06:52;;;;;;;53.20;26.10;;;10.00;99.90;;;;;;5068555;28;20028;-68
2020/12/23 01:09:18;;;;;;;52.65;26.55;;;10.00;99.90;;;;;;5064160;28;20078;-67
2020/12/23 01:11:43;;;;;;;57.40;25.70;;;10.00;99.90;;;;;;5061926;28;20041;-67
2020/12/23 01:14:09;;;;;;;60.55;26.10;;;10.00;99.90;;;;;;5081488;28;20555;-67
2020/12/23 01:16:35;;;;;;;51.33;24.25;;;10.00;99.90;;;;;;5056722;28;20033;-67
2020/12/23 01:19:01;;;;;;;51.38;25.05;;;10.00;99.90;;;;;;5061662;28;20392;-67
2020/12/23 01:21:26;;;;;;;58.70;27.08;;;10.00;99.90;;;;;;5070543;28;20123;-68
2020/12/23 01:23:52;;;;;;;55.22;26.88;;;10.00;99.90;;;;;;5065231;28;20131;-68
2020/12/23 01:26:18;;;;;;;45.58;24.77;;;10.00;99.90;;;;;;5060708;28;20036;-66
2020/12/23 01:28:45;;;;;;;51.42;25.98;;;10.10;99.90;;;;;;5061072;28;20091;-67
2020/12/23 01:31:11;;;;;;;57.30;27.33;;;10.10;99.90;;;;;;5057332;28;20051;-67
2020/12/23 01:33:37;;;;;;;52.80;27.58;;;10.10;99.90;;;;;;5068166;28;20027;-68
2020/12/23 01:36:02;;;;;;;75.18;31.00;;;10.10;99.90;;;;;;5061998;28;20029;-67
2020/12/23 01:38:28;;;;;;;70.80;30.35;;;10.10;99.90;;;;;;5063510;28;20082;-67
2020/12/23 01:41:02;;;;;;;62.65;28.00;;;10.10;99.90;;;;;;5062886;28;20384;-67
2020/12/23 01:43:28;;;;;;;69.95;28.30;;;10.10;99.90;;;;;;5065503;28;20052;-67
2020/12/23 01:45:53;;;;;;;64.93;29.83;;;10.20;99.90;;;;;;5062403;28;20048;-67
2020/12/23 01:48:25;;;;;;;69.72;30.05;;;10.20;99.90;;;;;;5080493;28;20067;-67
2020/12/23 01:50:51;;;;;;;77.03;33.42;;;10.20;99.90;;;;;;5074697;28;20602;-67
2020/12/23 01:53:17;;;;;;;76.30;31.13;;;10.30;99.90;;;;;;5068913;28;20052;-67
2020/12/23 01:55:46;;;;;;;82.82;30.45;;;10.20;99.90;;;;;;5074892;28;20039;-67
2020/12/23 01:58:13;;;;;;;80.78;32.25;;;10.30;99.90;;;;;;5059093;28;20033;-67
2020/12/23 02:00:40;;;;;;;79.40;31.25;;;10.30;99.90;;;;;;5059400;28;20040;-67
2020/12/23 02:03:09;;;;;;;90.00;33.20;;;10.30;99.90;;;;;;5058108;28;20131;-69
2020/12/23 02:05:36;;;;;;;85.60;33.50;;;10.30;99.90;;;;;;5061763;28;20029;-67
2020/12/23 02:08:01;;;;;;;93.63;34.05;;;10.30;99.90;;;;;;5061458;28;20039;-67
2020/12/23 02:10:27;;;;;;;91.50;33.67;;;10.30;99.90;;;;;;5062358;28;20048;-67
2020/12/23 02:12:53;;;;;;;90.80;33.42;;;10.30;99.90;;;;;;5072549;28;20063;-67
2020/12/23 02:15:19;;;;;;;86.32;32.22;;;10.40;99.90;;;;;;5067356;28;20032;-67
2020/12/23 02:17:46;;;;;;;97.55;35.55;;;10.30;99.90;;;;;;5066432;28;20497;-67
2020/12/23 02:20:13;;;;;;;95.35;35.95;;;10.30;99.90;;;;;;5090229;28;20043;-67
2020/12/23 02:22:39;;;;;;;78.25;31.95;;;10.40;99.90;;;;;;5074941;28;20032;-68
2020/12/23 02:25:05;;;;;;;82.50;34.60;;;10.40;99.90;;;;;;5062561;28;20495;-68
2020/12/23 02:27:31;;;;;;;88.35;34.40;;;10.40;99.90;;;;;;5061946;28;20406;-68
2020/12/23 02:29:57;;;;;;;87.43;36.78;;;10.40;99.90;;;;;;5066778;28;20036;-68
2020/12/23 02:32:24;;;;;;;94.18;34.40;;;10.40;99.90;;;;;;5062983;28;20074;-68
2020/12/23 02:34:50;;;;;;;94.13;36.25;;;10.30;99.90;;;;;;5068863;28;20060;-68
2020/12/23 02:37:17;;;;;;;97.90;34.95;;;10.40;99.90;;;;;;5066780;28;20021;-68
2020/12/23 02:39:47;;;;;;;89.10;34.97;;;10.40;99.90;;;;;;5068007;28;20094;-68
2020/12/23 02:42:13;;;;;;;97.32;36.65;;;10.40;99.90;;;;;;5074212;28;20048;-68
2020/12/23 02:44:38;;;;;;;84.88;36.25;;;10.40;99.90;;;;;;5072230;28;20495;-68
2020/12/23 02:47:12;;;;;;;97.82;36.88;;;10.40;99.90;;;;;;5081341;28;20115;-68
2020/12/23 02:49:39;;;;;;;90.45;35.67;;;10.40;99.90;;;;;;5074184;28;20029;-68
2020/12/23 02:52:05;;;;;;;93.57;37.65;;;10.40;99.90;;;;;;5078440;28;20036;-68
2020/12/23 02:54:30;;;;;;;86.15;36.70;;;10.40;99.90;;;;;;5069201;28;20362;-68
2020/12/23 02:56:56;;;;;;;89.90;37.80;;;10.40;99.90;;;;;;5065672;28;20085;-68
2020/12/23 02:59:22;;;;;;;88.43;38.00;;;10.40;99.90;;;;;;5064900;28;20029;-68
2020/12/23 03:01:47;;;;;;;91.53;36.65;;;10.40;99.90;;;;;;5077247;28;20076;-68
2020/12/23 03:04:13;;;;;;;86.50;37.33;;;10.40;99.90;;;;;;5077226;28;20035;-69
2020/12/23 03:06:39;;;;;;;89.10;38.45;;;10.50;99.90;;;;;;5064574;28;20021;-68
2020/12/23 03:09:07;;;;;;;91.65;39.70;;;10.40;99.90;;;;;;5074052;28;20306;-68
2020/12/23 03:11:33;;;;;;;102.75;40.80;;;10.50;99.90;;;;;;5064055;28;20040;-68
2020/12/23 03:13:59;;;;;;;90.10;38.05;;;10.50;99.90;;;;;;5076161;28;20082;-68
2020/12/23 03:16:25;;;;;;;103.70;44.15;;;10.50;99.90;;;;;;5067438;28;20051;-68
2020/12/23 03:18:51;;;;;;;82.35;38.00;;;10.50;99.90;;;;;;5062570;28;20025;-68
2020/12/23 03:21:17;;;;;;;90.57;40.30;;;10.50;99.90;;;;;;5063608;28;20037;-67
2020/12/23 03:23:43;;;;;;;76.53;36.45;;;10.50;99.90;;;;;;5068116;28;20032;-68
2020/12/23 03:26:08;;;;;;;82.05;39.15;;;10.50;99.90;;;;;;5076692;28;20025;-67
2020/12/23 03:28:34;;;;;;;90.72;40.60;;;10.50;99.90;;;;;;5071803;28;20485;-67
2020/12/23 03:31:00;;;;;;;85.38;40.08;;;10.50;99.90;;;;;;5079851;28;20158;-67
2020/12/23 03:33:26;;;;;;;83.50;38.38;;;10.50;99.90;;;;;;5059887;28;20024;-68
2020/12/23 03:35:52;;;;;;;74.25;38.28;;;10.60;99.90;;;;;;5059462;28;20362;-67
2020/12/23 03:38:18;;;;;;;79.07;38.38;;;10.60;99.90;;;;;;5059665;28;20373;-68
2020/12/23 03:40:43;;;;;;;77.68;37.95;;;10.60;99.90;;;;;;5060622;28;20029;-68
2020/12/23 03:43:09;;;;;;;79.78;38.50;;;10.60;99.90;;;;;;5060231;28;20073;-67
2020/12/23 03:45:34;;;;;;;73.30;35.67;;;10.60;99.90;;;;;;5059672;28;20377;-67
2020/12/23 03:48:00;;;;;;;80.93;38.30;;;10.60;99.90;;;;;;5060948;28;20020;-68
2020/12/23 03:50:26;;;;;;;72.90;36.95;;;10.70;99.90;;;;;;5064100;28;20073;-67
2020/12/23 03:52:51;;;;;;;81.20;39.30;;;10.60;99.90;;;;;;5067045;28;20024;-67
2020/12/23 03:55:17;;;;;;;76.07;37.50;;;10.60;99.90;;;;;;5063763;28;20089;-68
2020/12/23 03:57:42;;;;;;;77.25;36.85;;;10.70;99.90;;;;;;5067806;28;20048;-67
2020/12/23 04:00:11;;;;;;;71.53;35.38;;;10.70;99.90;;;;;;5059721;28;20482;-67
2020/12/23 04:02:36;;;;;;;71.93;35.65;;;10.70;99.90;;;;;;5069074;28;20040;-67
2020/12/23 04:05:02;;;;;;;77.28;35.88;;;10.60;99.90;;;;;;5062495;28;20033;-67
2020/12/23 04:07:28;;;;;;;70.82;34.78;;;10.60;99.90;;;;;;5065144;28;20044;-67
2020/12/23 04:09:54;;;;;;;73.15;35.30;;;10.60;99.90;;;;;;5064872;28;20028;-66
2020/12/23 04:12:19;;;;;;;67.30;32.47;;;10.70;99.90;;;;;;5064527;28;20128;-67
2020/12/23 04:14:45;;;;;;;69.00;35.75;;;10.70;99.90;;;;;;5059879;28;20032;-66
2020/12/23 04:17:11;;;;;;;65.80;34.63;;;10.70;99.90;;;;;;5057393;28;20033;-67
2020/12/23 04:19:36;;;;;;;70.15;34.90;;;10.70;99.90;;;;;;5061916;28;20039;-68
2020/12/23 04:22:02;;;;;;;65.95;33.72;;;10.70;99.90;;;;;;5061267;28;20035;-67
2020/12/23 04:24:27;;;;;;;65.35;34.33;;;10.70;99.90;;;;;;5070434;28;20036;-67
2020/12/23 04:26:53;;;;;;;66.63;34.50;;;10.70;99.90;;;;;;5065725;28;20048;-68
2020/12/23 04:29:18;;;;;;;59.22;31.88;;;10.70;99.90;;;;;;5059737;28;20032;-67
2020/12/23 04:31:44;;;;;;;61.97;30.95;;;10.70;99.90;;;;;;5062665;28;20040;-67
2020/12/23 04:34:09;;;;;;;61.53;32.35;;;10.70;99.90;;;;;;5064481;28;20055;-67
2020/12/23 04:36:35;;;;;;;60.08;31.83;;;10.70;99.90;;;;;;5068323;28;20418;-67
2020/12/23 04:39:01;;;;;;;62.95;32.28;;;10.70;99.90;;;;;;5064551;28;20521;-68
2020/12/23 04:41:27;;;;;;;69.65;34.08;;;10.70;99.90;;;;;;5069017;28;20353;-67
2020/12/23 04:43:53;;;;;;;56.92;31.45;;;10.70;99.90;;;;;;5062819;28;20037;-69
2020/12/23 04:46:23;;;;;;;63.80;31.50;;;10.70;99.90;;;;;;5071437;28;20066;-69
2020/12/23 04:48:59;;;;;;;61.72;31.95;;;10.80;99.90;;;;;;5060980;28;20434;-69
2020/12/23 04:51:30;;;;;;;55.00;29.80;;;10.80;99.90;;;;;;5055451;28;20047;-67
2020/12/23 04:53:57;;;;;;;58.85;32.05;;;10.70;99.90;;;;;;5063999;28;20033;-68
2020/12/23 04:56:27;;;;;;;58.45;31.23;;;10.80;99.90;;;;;;5067134;28;20040;-67
2020/12/23 04:58:53;;;;;;;53.70;29.93;;;10.80;99.90;;;;;;5072404;28;20543;-67
2020/12/23 05:01:19;;;;;;;53.13;29.42;;;10.80;99.90;;;;;;5069725;28;20611;-67
2020/12/23 05:03:45;;;;;;;49.22;27.35;;;10.80;99.90;;;;;;5060797;28;20060;-67
2020/12/23 05:06:11;;;;;;;51.28;27.75;;;10.80;99.90;;;;;;5066143;28;20036;-67
2020/12/23 05:08:37;;;;;;;51.80;28.33;;;10.80;99.90;;;;;;5064125;28;20108;-66
2020/12/23 05:11:10;;;;;;;45.38;27.13;;;10.80;99.90;;;;;;5066467;28;20123;-68
2020/12/23 05:13:36;;;;;;;54.15;29.27;;;10.80;99.90;;;;;;5066133;28;20111;-67
2020/12/23 05:16:04;;;;;;;53.05;28.48;;;10.80;99.90;;;;;;5061442;28;20040;-67
2020/12/23 05:18:37;;;;;;;46.03;27.55;;;10.80;99.90;;;;;;5058083;28;20073;-67
2020/12/23 05:21:16;;;;;;;44.03;26.25;;;10.80;99.90;;;;;;5063200;28;20068;-67
2020/12/23 05:23:42;;;;;;;42.35;24.92;;;10.80;99.90;;;;;;5065352;28;20029;-67
2020/12/23 05:26:08;;;;;;;40.50;24.70;;;10.80;99.90;;;;;;5053851;28;20108;-68
2020/12/23 05:28:35;;;;;;;44.20;24.77;;;10.80;99.90;;;;;;5058073;28;20101;-67
2020/12/23 05:31:09;;;;;;;42.30;24.40;;;10.80;99.90;;;;;;5055209;28;20037;-68
2020/12/23 05:33:36;;;;;;;40.38;24.15;;;10.90;99.90;;;;;;5069187;28;20032;-67
2020/12/23 05:36:06;;;;;;;39.33;23.25;;;10.90;99.90;;;;;;5067404;28;20025;-67
2020/12/23 05:38:33;;;;;;;39.88;23.33;;;10.90;99.90;;;;;;5057708;28;20036;-67
2020/12/23 05:41:01;;;;;;;36.42;21.63;;;10.90;99.90;;;;;;5063138;28;20052;-67
2020/12/23 05:43:27;;;;;;;45.67;25.67;;;10.90;99.90;;;;;;5063035;28;20076;-67
2020/12/23 05:46:03;;;;;;;40.38;22.77;;;10.90;99.90;;;;;;5066646;28;20292;-67
2020/12/23 05:48:30;;;;;;;35.88;21.95;;;10.90;99.90;;;;;;5061690;28;20068;-67
2020/12/23 05:50:56;;;;;;;33.38;21.20;;;10.90;99.90;;;;;;5065546;28;20541;-67
2020/12/23 05:53:21;;;;;;;37.50;22.52;;;10.90;99.90;;;;;;5058413;28;20032;-67
2020/12/23 05:55:49;;;;;;;35.15;21.70;;;10.90;99.90;;;;;;5063508;28;20119;-67
2020/12/23 05:58:24;;;;;;;34.95;21.00;;;10.90;99.90;;;;;;5059273;28;20427;-67
2020/12/23 06:00:51;;;;;;;33.75;20.58;;;10.90;99.90;;;;;;5056696;28;20455;-67
2020/12/23 06:03:30;;;;;;;30.63;19.95;;;10.90;99.90;;;;;;5062185;28;20032;-67
2020/12/23 06:06:01;;;;;;;32.75;20.63;;;10.90;99.90;;;;;;5062730;28;20025;-67
2020/12/23 06:08:34;;;;;;;29.83;19.67;;;10.90;99.90;;;;;;5060464;28;20025;-67
2020/12/23 06:11:12;;;;;;;30.85;18.25;;;10.90;99.90;;;;;;5064831;28;20040;-68
2020/12/23 06:14:03;;;;;;;29.85;18.52;;;10.90;99.90;;;;;;5069963;28;20013;-67
2020/12/23 06:16:30;;;;;;;25.48;17.35;;;11.00;99.90;;;;;;5058273;28;20533;-67
2020/12/23 06:19:00;;;;;;;27.35;17.38;;;11.00;99.90;;;;;;5059472;28;20115;-67
2020/12/23 06:21:28;;;;;;;24.27;16.20;;;11.00;99.90;;;;;;5060477;28;20389;-67
2020/12/23 06:24:02;;;;;;;27.13;16.70;;;11.00;99.90;;;;;;5059427;28;20779;-67
2020/12/23 06:26:33;;;;;;;24.23;15.38;;;11.00;99.90;;;;;;5067559;28;20067;-67
2020/12/23 06:29:00;;;;;;;24.55;16.02;;;11.00;99.90;;;;;;5079587;28;20025;-67
2020/12/23 06:31:28;;;;;;;23.80;16.02;;;11.10;99.90;;;;;;5085923;28;20031;-68
2020/12/23 06:33:55;;;;;;;20.55;14.98;;;11.10;99.90;;;;;;5074509;28;20481;-68
2020/12/23 06:36:28;;;;;;;20.35;15.57;;;11.10;99.90;;;;;;5085816;28;20059;-67
2020/12/23 06:39:27;;;;;;;20.95;14.85;;;11.10;99.90;;;;;;5086969;28;20480;-67
2020/12/23 06:42:01;;;;;;;20.42;15.48;;;11.10;99.90;;;;;;5081951;28;20035;-68
2020/12/23 06:44:42;;;;;;;18.98;14.75;;;11.10;99.90;;;;;;5073540;28;20040;-67
2020/12/23 06:47:20;;;;;;;17.30;14.82;;;11.10;99.90;;;;;;5074473;28;20445;-68
2020/12/23 06:49:58;;;;;;;19.23;14.65;;;11.10;99.90;;;;;;5073123;28;20036;-68
2020/12/23 06:52:29;;;;;;;16.42;13.43;;;11.20;99.90;;;;;;5072405;28;20120;-68
2020/12/23 06:55:08;;;;;;;14.90;13.30;;;11.20;99.90;;;;;;5069330;28;20021;-66
2020/12/23 06:57:37;;;;;;;15.32;13.68;;;11.20;99.90;;;;;;5077491;28;20414;-67
2020/12/23 07:00:12;;;;;;;16.13;13.70;;;11.30;99.90;;;;;;5079257;28;20028;-69
2020/12/23 07:02:46;;;;;;;16.48;13.20;;;11.30;99.90;;;;;;5072589;28;20048;-69
2020/12/23 07:05:14;;;;;;;14.43;12.65;;;11.30;99.90;;;;;;5081097;28;20099;-69
2020/12/23 07:07:43;;;;;;;13.50;12.15;;;11.40;99.90;;;;;;5082198;28;20107;-69
2020/12/23 07:10:26;;;;;;;13.95;12.52;;;11.40;99.90;;;;;;5070569;28;20027;-68
2020/12/23 07:13:03;;;;;;;13.57;12.27;;;11.40;99.90;;;;;;5074013;28;20036;-68
2020/12/23 07:15:31;;;;;;;11.98;10.77;;;11.40;99.90;;;;;;5070571;28;20056;-68
2020/12/23 07:18:08;;;;;;;13.02;10.60;;;11.40;99.90;;;;;;5074920;28;20388;-67
2020/12/23 07:20:39;;;;;;;14.65;12.68;;;11.40;99.90;;;;;;5089519;28;20111;-67
2020/12/23 07:23:10;;;;;;;14.20;11.35;;;11.30;99.90;;;;;;5080704;28;20031;-68
2020/12/23 07:25:39;;;;;;;13.68;10.48;;;11.30;99.90;;;;;;5078043;28;20487;-68
2020/12/23 07:28:06;;;;;;;12.00;10.75;;;11.30;99.90;;;;;;5080915;28;20750;-68
2020/12/23 07:30:40;;;;;;;10.68;9.65;;;11.30;99.90;;;;;;5078217;28;20119;-68
2020/12/23 07:33:09;;;;;;;9.70;8.70;;;11.30;99.90;;;;;;5087392;28;20047;-68
2020/12/23 07:35:36;;;;;;;7.70;6.88;;;11.30;99.90;;;;;;5075366;28;20029;-68
2020/12/23 07:38:04;;;;;;;7.78;7.07;;;11.30;99.90;;;;;;5078893;28;20078;-68
2020/12/23 07:40:31;;;;;;;8.48;7.75;;;11.30;99.90;;;;;;5083136;28;20094;-68
2020/12/23 07:42:57;;;;;;;10.05;7.90;;;11.30;99.90;;;;;;5088131;28;20150;-68
2020/12/23 07:45:27;;;;;;;9.30;8.50;;;11.40;99.90;;;;;;5078209;28;20153;-68
2020/12/23 07:47:58;;;;;;;10.48;9.38;;;11.40;99.90;;;;;;5074807;28;20422;-68
2020/12/23 07:50:25;;;;;;;10.55;9.60;;;11.40;99.90;;;;;;5086725;28;20477;-68
2020/12/23 07:52:51;;;;;;;10.77;9.77;;;11.40;99.90;;;;;;5087887;28;20218;-67
2020/12/23 07:55:21;;;;;;;11.25;10.15;;;11.40;99.90;;;;;;5084481;28;20027;-67
2020/12/23 07:57:53;;;;;;;11.30;10.30;;;11.30;99.90;;;;;;5086069;28;20020;-67
2020/12/23 08:00:20;;;;;;;11.95;10.73;;;11.30;99.90;;;;;;5079553;28;20546;-68
2020/12/23 08:02:46;;;;;;;11.63;10.35;;;11.30;99.90;;;;;;5083877;28;20036;-67
2020/12/23 08:05:12;;;;;;;12.82;11.52;;;11.30;99.90;;;;;;5084326;28;20024;-67
2020/12/23 08:07:43;;;;;;;13.13;11.85;;;11.30;99.90;;;;;;5077070;28;20020;-67
2020/12/23 08:10:13;;;;;;;12.85;11.73;;;11.40;99.90;;;;;;5075600;28;20024;-67
2020/12/23 08:12:49;;;;;;;;;;;11.30;99.90;;;;;;5083605;28;20036;-67
2020/12/23 08:15:15;;;;;;;12.60;10.25;;;11.30;99.90;;;;;;5076030;28;19912;-68
2020/12/23 08:17:41;;;;;;;12.25;10.70;;;11.30;99.90;;;;;;5065492;28;20025;-67
2020/12/23 08:20:07;;;;;;;11.05;9.60;;;11.30;99.90;;;;;;5066755;28;20055;-67
2020/12/23 08:22:35;;;;;;;10.75;9.82;;;11.40;99.90;;;;;;5070415;28;20040;-67
2020/12/23 08:25:10;;;;;;;9.82;8.98;;;11.30;99.90;;;;;;5076909;28;20024;-67
2020/12/23 08:27:36;;;;;;;9.57;8.77;;;11.30;99.90;;;;;;5061427;28;20487;-67
2020/12/23 08:30:05;;;;;;;9.45;8.57;;;11.30;99.90;;;;;;5062476;28;20116;-67
2020/12/23 08:32:35;;;;;;;8.52;7.72;;;11.30;99.90;;;;;;5074484;28;20052;-66
2020/12/23 08:35:02;;;;;;;8.85;8.15;;;11.40;99.90;;;;;;5075308;28;20056;-68
2020/12/23 08:37:28;;;;;;;8.63;7.82;;;11.40;99.90;;;;;;5065023;28;20066;-67
2020/12/23 08:39:58;;;;;;;9.02;8.23;;;11.40;99.90;;;;;;5072973;28;20035;-67
2020/12/23 08:42:24;;;;;;;9.60;7.67;;;11.40;99.90;;;;;;5061582;28;20037;-67
2020/12/23 08:44:56;;;;;;;9.23;8.32;;;11.40;99.90;;;;;;5077600;28;20056;-68
2020/12/23 08:47:29;;;;;;;10.45;9.35;;;11.40;99.90;;;;;;5062395;28;20515;-67
2020/12/23 08:49:55;;;;;;;11.18;9.18;;;11.40;99.90;;;;;;5059035;28;20025;-67
2020/12/23 08:52:23;;;;;;;12.43;9.85;;;11.50;99.90;;;;;;5070423;28;20465;-68
2020/12/23 08:54:49;;;;;;;10.43;9.15;;;11.50;99.90;;;;;;5066126;28;20020;-66
2020/12/23 08:57:21;;;;;;;9.88;8.52;;;11.50;99.90;;;;;;5069213;28;20491;-67
2020/12/23 08:59:47;;;;;;;8.55;7.57;;;11.50;99.90;;;;;;5063106;28;20111;-67
2020/12/23 09:02:13;;;;;;;12.68;8.30;;;11.50;99.90;;;;;;5064058;28;20132;-69
2020/12/23 09:04:39;;;;;;;8.02;6.97;;;11.50;99.90;;;;;;5073134;28;20102;-68
2020/12/23 09:07:06;;;;;;;8.98;7.20;;;11.50;99.90;;;;;;5063449;28;20507;-67
2020/12/23 09:09:32;;;;;;;9.70;7.22;;;11.40;99.90;;;;;;5074229;28;20048;-67
2020/12/23 09:11:58;;;;;;;10.68;7.65;;;11.40;99.90;;;;;;5064502;28;20055;-67
2020/12/23 09:14:30;;;;;;;7.40;6.47;;;11.40;99.90;;;;;;5070952;28;20027;-68
2020/12/23 09:17:06;;;;;;;7.75;6.18;;;11.40;99.90;;;;;;5071729;28;20024;-67
2020/12/23 09:19:42;;;;;;;6.68;6.07;;;11.50;99.90;;;;;;5071821;28;20020;-66
2020/12/23 09:22:25;;;;;;;8.93;5.95;;;11.40;99.90;;;;;;5071751;28;20480;-67
2020/12/23 09:24:52;;;;;;;7.70;6.90;;;11.40;99.90;;;;;;5071164;28;20480;-68
2020/12/23 09:27:23;;;;;;;7.28;6.57;;;11.40;99.90;;;;;;5071772;28;20047;-67
2020/12/23 09:29:50;;;;;;;7.78;6.97;;;11.50;99.90;;;;;;5071532;28;20485;-67
2020/12/23 09:32:16;;;;;;;7.60;6.82;;;11.50;99.90;;;;;;5070996;28;20468;-67
2020/12/23 09:34:41;;;;;;;8.07;7.38;;;11.50;99.90;;;;;;5072701;28;20036;-67
2020/12/23 09:37:07;;;;;;;10.02;7.22;;;11.50;99.90;;;;;;5085326;28;20024;-67
2020/12/23 09:39:37;;;;;;;8.27;7.50;;;11.50;99.90;;;;;;5089671;28;20503;-68
2020/12/23 09:42:05;;;;;;;9.40;8.50;;;11.50;99.90;;;;;;5071387;28;20024;-67
2020/12/23 09:44:32;;;;;;;9.15;8.32;;;11.50;99.90;;;;;;5071220;28;20412;-67
2020/12/23 09:46:58;;;;;;;9.13;8.32;;;11.50;99.90;;;;;;5057525;28;20059;-67
2020/12/23 09:49:24;;;;;;;9.45;8.60;;;11.50;99.90;;;;;;5071385;28;20055;-67
2020/12/23 09:51:50;;;;;;;10.98;9.95;;;11.50;99.90;;;;;;5070563;28;20071;-67
2020/12/23 09:54:16;;;;;;;9.32;8.30;;;11.50;99.90;;;;;;5071837;28;20024;-67
2020/12/23 09:56:50;;;;;;;9.63;8.07;;;11.50;99.90;;;;;;5071073;28;20100;-67
2020/12/23 09:59:15;;;;;;;10.40;7.63;;;11.50;99.90;;;;;;5065277;28;20503;-67
2020/12/23 10:01:41;;;;;;;9.15;8.25;;;11.50;99.90;;;;;;5070124;28;20056;-68
2020/12/23 10:04:07;;;;;;;12.32;8.13;;;11.50;99.90;;;;;;5071244;28;20100;-68
2020/12/23 10:06:32;;;;;;;7.78;7.07;;;11.50;99.90;;;;;;5087395;28;20032;-68
2020/12/23 10:08:58;;;;;;;8.13;7.40;;;11.50;99.90;;;;;;5081515;28;20449;-67
2020/12/23 10:11:23;;;;;;;11.70;7.05;;;11.50;99.90;;;;;;5069058;28;20537;-69
2020/12/23 10:13:49;;;;;;;7.00;6.40;;;11.50;99.90;;;;;;5069279;28;20020;-68
2020/12/23 10:16:14;;;;;;;7.55;6.75;;;11.50;99.90;;;;;;5085053;28;20024;-67
2020/12/23 10:18:40;;;;;;;7.03;6.43;;;11.50;99.90;;;;;;5080687;28;20481;-67
2020/12/23 10:21:05;;;;;;;6.82;6.18;;;11.50;99.90;;;;;;5089408;28;20038;-67
2020/12/23 10:23:31;;;;;;;9.90;7.20;;;11.50;99.90;;;;;;5087931;28;20027;-67
2020/12/23 10:25:56;;;;;;;8.77;7.70;;;11.50;99.90;;;;;;5084845;28;20478;-68
2020/12/23 10:28:22;;;;;;;7.53;6.82;;;11.50;99.90;;;;;;5084872;28;20480;-68
2020/12/23 10:30:48;;;;;;;7.85;7.15;;;11.50;99.90;;;;;;5083774;28;20050;-68
2020/12/23 10:33:13;;;;;;;7.82;7.10;;;11.50;99.90;;;;;;5086329;28;20039;-70
2020/12/23 10:35:39;;;;;;;9.45;8.55;;;11.50;99.90;;;;;;5088362;28;20032;-68
2020/12/23 10:38:04;;;;;;;10.45;9.32;;;11.50;99.90;;;;;;5087841;28;20095;-67
2020/12/23 10:40:30;;;;;;;8.85;7.95;;;11.50;99.90;;;;;;5079904;28;20086;-67
2020/12/23 10:42:55;;;;;;;6.47;5.95;;;11.50;99.90;;;;;;5087953;28;20040;-66
2020/12/23 10:45:21;;;;;;;5.65;5.15;;;11.40;99.90;;;;;;5079429;28;20444;-68
2020/12/23 10:47:46;;;;;;;4.40;4.05;;;11.50;99.90;;;;;;5087263;28;20023;-69
2020/12/23 10:50:12;;;;;;;6.28;4.10;;;11.40;99.90;;;;;;5077965;28;20057;-69
2020/12/23 10:52:37;;;;;;;3.80;3.40;;;11.60;99.90;;;;;;5088654;28;20016;-67
2020/12/23 10:55:03;;;;;;;4.47;2.90;;;11.50;99.90;;;;;;5084576;28;20028;-67
2020/12/23 10:57:33;;;;;;;3.05;2.75;;;11.40;99.90;;;;;;5085160;28;20020;-67
2020/12/23 10:59:59;;;;;;;2.65;2.38;;;11.50;99.90;;;;;;5083089;28;20074;-68
2020/12/23 11:02:25;;;;;;;2.25;2.05;;;11.40;99.90;;;;;;5080703;28;20063;-67
2020/12/23 11:04:50;;;;;;;3.35;2.10;;;11.50;99.90;;;;;;5089336;28;20047;-68
2020/12/23 11:07:16;;;;;;;2.50;1.90;;;11.40;99.90;;;;;;5081191;28;20020;-67
2020/12/23 11:09:42;;;;;;;3.83;2.28;;;11.50;99.90;;;;;;5091159;28;20375;-68
2020/12/23 11:12:08;;;;;;;1.60;1.50;;;11.50;99.90;;;;;;5085778;28;20036;-67
2020/12/23 11:14:33;;;;;;;2.13;1.60;;;11.50;99.90;;;;;;5091860;28;20387;-67
2020/12/23 11:16:59;;;;;;;2.50;1.73;;;11.50;99.90;;;;;;5085896;28;20131;-67
2020/12/23 11:19:24;;;;;;;2.08;1.70;;;11.50;99.90;;;;;;5092636;28;20016;-68
2020/12/23 11:21:50;;;;;;;2.78;2.00;;;11.50;99.90;;;;;;5091124;28;20464;-69
2020/12/23 11:24:15;;;;;;;2.97;2.17;;;11.50;99.90;;;;;;5092656;28;20024;-68
2020/12/23 11:26:41;;;;;;;5.18;4.25;;;11.50;99.90;;;;;;5093657;28;20566;-69
2020/12/23 11:29:07;;;;;;;3.38;3.17;;;11.60;99.90;;;;;;5074267;28;20377;-67
2020/12/23 11:31:33;;;;;;;5.43;3.65;;;11.60;99.90;;;;;;5073216;28;20422;-67
2020/12/23 11:33:58;;;;;;;3.60;3.30;;;11.60;99.90;;;;;;5074015;28;20017;-68
2020/12/23 11:36:24;;;;;;;3.45;3.15;;;11.60;99.90;;;;;;5073831;28;20025;-68
2020/12/23 11:38:50;;;;;;;3.60;3.20;;;11.60;99.90;;;;;;5073623;28;20093;-68
2020/12/23 11:41:15;;;;;;;5.72;5.32;;;11.60;99.90;;;;;;5062977;28;20044;-70
2020/12/23 11:43:41;;;;;;;6.20;5.70;;;11.60;99.90;;;;;;5070455;28;20057;-68
2020/12/23 11:46:07;;;;;;;7.50;6.88;;;11.60;99.90;;;;;;5067772;28;20016;-68
2020/12/23 11:48:34;;;;;;;6.82;6.22;;;11.60;99.90;;;;;;5069027;28;20079;-68
2020/12/23 11:51:00;;;;;;;8.05;7.30;;;11.60;99.90;;;;;;5087503;28;20103;-67
2020/12/23 11:53:26;;;;;;;6.90;6.40;;;11.60;99.90;;;;;;5090694;28;20017;-68
2020/12/23 11:55:52;;;;;;;9.30;8.60;;;11.60;99.90;;;;;;5090324;28;20025;-68
2020/12/23 11:58:17;;;;;;;8.73;7.93;;;11.60;99.90;;;;;;5090556;28;20058;-68
2020/12/23 12:00:43;;;;;;;9.73;8.77;;;11.60;99.90;;;;;;5090673;28;20024;-68
2020/12/23 12:03:09;;;;;;;10.23;9.32;;;11.70;99.90;;;;;;5090016;28;20426;-68
2020/12/23 12:05:34;;;;;;;9.98;9.20;;;11.70;99.90;;;;;;5087459;28;20024;-68
2020/12/23 12:08:03;;;;;;;8.93;8.13;;;11.70;99.90;;;;;;5075140;28;20021;-68
2020/12/23 12:10:29;;;;;;;9.63;8.73;;;11.70;99.90;;;;;;5072042;28;20036;-67
2020/12/23 12:12:54;;;;;;;9.27;8.52;;;11.80;99.90;;;;;;5058722;28;20039;-67
2020/12/23 12:15:20;;;;;;;8.77;7.97;;;11.80;99.90;;;;;;5061682;28;20111;-66
2020/12/23 12:17:45;;;;;;;8.13;7.53;;;11.80;99.90;;;;;;5060219;28;20064;-68
2020/12/23 12:20:11;;;;;;;6.15;5.75;;;11.80;99.90;;;;;;5072612;28;20453;-68
2020/12/23 12:22:36;;;;;;;5.90;5.40;;;11.80;99.90;;;;;;5067393;28;20115;-68
2020/12/23 12:25:02;;;;;;;5.45;5.05;;;11.90;99.90;;;;;;5072857;28;20037;-68
2020/12/23 12:27:28;;;;;;;4.40;4.10;;;11.90;99.90;;;;;;5072274;28;20028;-68
2020/12/23 12:29:54;;;;;;;3.78;3.47;;;11.90;99.90;;;;;;5072903;28;20025;-68
2020/12/23 12:32:19;;;;;;;4.07;3.22;;;11.90;99.90;;;;;;5072564;28;20064;-68
2020/12/23 12:34:45;;;;;;;2.72;2.47;;;12.00;99.90;;;;;;5071982;28;20025;-68
2020/12/23 12:37:10;;;;;;;2.58;2.38;;;12.00;99.90;;;;;;5073014;28;20035;-68